Time;durP1;ratioP1;P1;durP2;ratioP2;P2;SDS_P1;SDS_P2;PMS_P1;PMS_P2;Temp;Humidity;BMP_temperature;BMP_pressure;BME280_temperature;BME280_humidity;BME280_pressure;Samples;Min_cycle;Max_cycle;Signal;HPM_P1;HPM_P2
2023/01/21 00:01:46;;;;;;;47.05;30.75;;;;;;;-2.24;100.00;101306.44;5011685;28;20036;-80
2023/01/21 00:04:11;;;;;;;52.88;32.63;;;;;;;-2.29;100.00;101310.63;5013295;28;20116;-81
2023/01/21 00:06:36;;;;;;;42.47;30.38;;;;;;;-2.31;100.00;101314.03;5021165;28;20851;-81
2023/01/21 00:09:03;;;;;;;47.50;32.45;;;;;;;-2.28;100.00;101332.94;5021189;28;21026;-81
2023/01/21 00:11:28;;;;;;;46.08;32.63;;;;;;;-2.39;100.00;101319.03;5024363;28;20489;-82
2023/01/21 00:13:53;;;;;;;49.17;31.90;;;;;;;-2.54;100.00;101302.47;5005882;28;20021;-83
2023/01/21 00:16:19;;;;;;;49.15;32.05;;;;;;;-2.74;100.00;101286.72;5005846;28;20199;-82
2023/01/21 00:18:46;;;;;;;52.25;34.42;;;;;;;-2.80;100.00;101273.72;5010152;28;20021;-82
2023/01/21 00:21:12;;;;;;;48.38;32.47;;;;;;;-2.39;100.00;101362.78;5014152;28;20035;-83
2023/01/21 00:23:38;;;;;;;54.63;35.75;;;;;;;-2.43;100.00;101345.53;5021199;28;20039;-82
2023/01/21 00:26:05;;;;;;;50.05;34.08;;;;;;;-2.36;100.00;101356.81;5032952;28;20025;-82
2023/01/21 00:28:33;;;;;;;52.30;36.90;;;;;;;-2.46;100.00;101350.63;5006907;28;20029;-81
2023/01/21 00:31:00;;;;;;;54.60;36.00;;;;;;;-2.40;100.00;101375.63;5008361;28;20036;-82
2023/01/21 00:33:26;;;;;;;55.60;35.95;;;;;;;-2.50;100.00;101356.56;5024230;28;20128;-82
2023/01/21 00:36:01;;;;;;;52.85;36.30;;;;;;;-2.37;100.00;101375.69;5000365;28;20037;-82
2023/01/21 00:38:26;;;;;;;53.53;36.58;;;;;;;-2.40;100.00;101371.31;5021385;28;20044;-82
2023/01/21 00:40:52;;;;;;;65.28;39.30;;;;;;;-2.64;100.00;101334.91;5038383;28;20795;-80
2023/01/21 00:43:17;;;;;;;56.92;38.53;;;;;;;-2.41;100.00;101379.03;5024127;28;20042;-81
2023/01/21 00:45:43;;;;;;;61.25;38.33;;;;;;;-2.46;100.00;101380.63;5022418;28;20021;-83
2023/01/21 00:48:08;;;;;;;58.50;39.05;;;;;;;-2.57;100.00;101362.47;5014987;28;20134;-80
2023/01/21 00:50:33;;;;;;;63.53;40.63;;;;;;;-2.53;100.00;101384.81;5008969;28;20140;-80
2023/01/21 00:52:59;;;;;;;53.83;36.97;;;;;;;-2.49;100.00;101396.03;5021520;28;20023;-83
2023/01/21 00:55:24;;;;;;;58.58;39.15;;;;;;;-2.48;100.00;101400.34;5020535;28;20029;-81
2023/01/21 00:57:51;;;;;;;58.25;37.80;;;;;;;-2.48;100.00;101408.91;5018910;28;20133;-80
2023/01/21 01:00:18;;;;;;;59.80;40.20;;;;;;;-2.58;100.00;101394.16;5017040;28;20039;-81
2023/01/21 01:02:43;;;;;;;64.20;39.80;;;;;;;-2.57;100.00;101393.31;5016565;28;20159;-81
2023/01/21 01:05:09;;;;;;;63.17;41.50;;;;;;;-2.60;100.00;101403.53;5012548;28;20028;-82
2023/01/21 01:07:34;;;;;;;64.22;38.55;;;;;;;-2.54;100.00;101418.22;5019266;28;20029;-81
2023/01/21 01:10:00;;;;;;;66.93;40.40;;;;;;;-2.65;100.00;101402.59;5002143;28;20028;-80
2023/01/21 01:12:27;;;;;;;65.25;40.80;;;;;;;-2.61;100.00;101417.25;4989447;28;20025;-82
2023/01/21 01:14:52;;;;;;;64.15;40.42;;;;;;;-2.66;100.00;101408.56;5017715;28;20398;-82
2023/01/21 01:17:18;;;;;;;62.38;41.22;;;;;;;-2.66;100.00;101404.28;5017263;28;20032;-79
2023/01/21 01:19:43;;;;;;;66.90;40.20;;;;;;;-2.65;100.00;101415.44;5018114;28;20110;-81
2023/01/21 01:22:09;;;;;;;67.20;40.67;;;;;;;-2.74;100.00;101405.84;5016665;28;20021;-81
2023/01/21 01:24:34;;;;;;;66.63;39.83;;;;;;;-2.70;100.00;101417.91;5018247;28;20044;-80
2023/01/21 01:26:59;;;;;;;65.97;41.45;;;;;;;-2.68;100.00;101420.53;5012925;28;20362;-80
2023/01/21 01:29:25;;;;;;;65.03;41.72;;;;;;;-2.79;100.00;101417.75;5015075;28;20866;-78
2023/01/21 01:31:50;;;;;;;61.00;40.30;;;;;;;-2.86;100.00;101405.59;5012324;28;20132;-80
2023/01/21 01:34:16;;;;;;;76.35;43.83;;;;;;;-2.69;100.00;101439.38;5006463;28;20183;-79
2023/01/21 01:36:41;;;;;;;72.68;44.22;;;;;;;-2.66;100.00;101447.13;5013329;28;20036;-78
2023/01/21 01:39:07;;;;;;;68.75;44.42;;;;;;;-2.68;100.00;101448.81;5002835;28;20089;-78
2023/01/21 01:41:34;;;;;;;72.38;42.45;;;;;;;-2.62;100.00;101464.38;5012476;28;20028;-80
2023/01/21 01:44:44;;;;;;;66.82;40.92;;;;;;;-2.59;100.00;101464.44;4995916;28;20143;-79
2023/01/21 01:47:09;;;;;;;64.70;41.05;;;;;;;-2.61;100.00;101466.13;4994945;28;20092;-79
2023/01/21 01:49:35;;;;;;;71.63;42.17;;;;;;;-2.66;100.00;101475.44;5011505;28;20135;-79
2023/01/21 01:52:02;;;;;;;65.40;41.03;;;;;;;-2.68;100.00;101480.56;5015629;28;20025;-79
2023/01/21 01:54:33;;;;;;;73.18;43.08;;;;;;;-3.06;100.00;101422.31;5013599;28;20088;-78
2023/01/21 01:57:01;;;;;;;68.18;42.30;;;;;;;-2.81;100.00;101476.00;4991790;28;20784;-78
2023/01/21 01:59:28;;;;;;;65.43;41.63;;;;;;;-2.81;100.00;101480.28;4992629;28;20032;-79
2023/01/21 02:01:54;;;;;;;70.40;43.65;;;;;;;-2.78;100.00;101509.50;4992054;28;20029;-78
2023/01/21 02:04:22;;;;;;;66.95;44.42;;;;;;;-2.79;100.00;101504.28;5009308;28;20029;-78
2023/01/21 02:06:49;;;;;;;68.75;43.40;;;;;;;-2.79;100.00;101509.44;5008874;28;20036;-77
2023/01/21 02:09:15;;;;;;;72.38;43.50;;;;;;;-2.96;100.00;101482.50;4991600;28;20133;-78
2023/01/21 02:11:40;;;;;;;64.75;41.22;;;;;;;-2.90;100.00;101500.63;5009784;28;20847;-79
2023/01/21 02:14:06;;;;;;;67.50;42.20;;;;;;;-2.85;100.00;101509.31;5011123;28;20021;-78
2023/01/21 02:16:45;;;;;;;64.60;43.47;;;;;;;-2.82;100.00;101519.66;5009843;28;20040;-78
2023/01/21 02:19:19;;;;;;;72.82;41.78;;;;;;;-2.83;100.00;101513.66;5008677;28;20025;-78
2023/01/21 02:21:59;;;;;;;64.32;43.45;;;;;;;-2.81;100.00;101521.41;4989987;28;21364;-77
2023/01/21 02:25:01;;;;;;;63.00;40.65;;;;;;;-2.86;100.00;101518.72;5008302;28;20040;-77
2023/01/21 02:27:36;;;;;;;69.63;42.72;;;;;;;-2.84;100.00;101531.63;4994345;28;20039;-78
2023/01/21 02:30:01;;;;;;;58.55;39.88;;;;;;;-2.84;100.00;101534.19;5007062;28;20036;-77
2023/01/21 02:33:04;;;;;;;70.00;43.65;;;;;;;-2.83;100.00;101535.91;5013393;28;20100;-77
2023/01/21 02:36:09;;;;;;;65.55;41.58;;;;;;;-2.88;100.00;101540.09;5006195;28;20092;-76
2023/01/21 02:39:02;;;;;;;71.65;43.00;;;;;;;-2.94;100.00;101545.94;5010699;28;20783;-77
2023/01/21 02:41:49;;;;;;;60.17;40.28;;;;;;;-2.95;100.00;101543.38;5012207;28;20438;-77
2023/01/21 02:44:39;;;;;;;61.80;40.97;;;;;;;-2.97;100.00;101540.75;5006652;28;20091;-77
2023/01/21 02:47:28;;;;;;;65.00;42.00;;;;;;;-3.10;100.00;101533.59;5008870;28;20029;-77
2023/01/21 02:50:02;;;;;;;73.22;42.47;;;;;;;-3.27;100.00;101511.75;4986619;28;20029;-76
2023/01/21 02:52:28;;;;;;;65.80;43.10;;;;;;;-3.41;100.00;101498.59;5010498;28;20154;-78
2023/01/21 02:54:55;;;;;;;74.45;43.13;;;;;;;-3.08;100.00;101561.91;4994094;28;20955;-77
2023/01/21 02:58:03;;;;;;;76.65;44.10;;;;;;;-3.28;100.00;101533.19;5009684;28;20127;-77
2023/01/21 03:00:43;;;;;;;65.28;43.22;;;;;;;-3.03;100.00;101562.88;4995878;28;20138;-77
2023/01/21 03:03:17;;;;;;;69.00;41.97;;;;;;;-3.25;100.00;101534.13;5009254;28;20037;-77
2023/01/21 03:06:02;;;;;;;73.60;42.83;;;;;;;-2.99;100.00;101577.53;5009890;28;20036;-77
2023/01/21 03:08:45;;;;;;;73.18;43.55;;;;;;;-3.12;100.00;101559.28;5008857;28;20033;-77
2023/01/21 03:11:14;;;;;;;54.25;32.30;;;;;;;-3.08;100.00;101572.19;5024173;28;20218;-76
2023/01/21 03:19:20;;;;;;;79.47;45.28;;;;;;;-3.07;100.00;101582.50;4993219;28;19951;-77
2023/01/21 03:21:46;;;;;;;75.55;45.95;;;;;;;-3.05;100.00;101580.84;5009521;28;20021;-76
2023/01/21 03:24:13;;;;;;;71.88;46.15;;;;;;;-3.05;100.00;101585.09;5008922;28;20066;-76
2023/01/21 03:26:45;;;;;;;70.78;46.92;;;;;;;-3.06;100.00;101585.94;5024755;28;20128;-76
2023/01/21 03:29:16;;;;;;;73.30;46.50;;;;;;;-3.25;100.00;101559.81;5009277;28;20049;-75
2023/01/21 03:31:44;;;;;;;72.97;44.90;;;;;;;-3.20;100.00;101567.59;4989858;28;20036;-75
2023/01/21 03:34:12;;;;;;;74.50;46.13;;;;;;;-3.10;100.00;101596.13;4997467;28;20088;-76
2023/01/21 03:36:42;;;;;;;72.50;44.38;;;;;;;-3.16;100.00;101583.16;4990658;28;20061;-76
2023/01/21 03:39:17;;;;;;;70.80;44.42;;;;;;;-3.15;100.00;101586.59;5009072;28;20029;-75
2023/01/21 03:41:42;;;;;;;70.03;46.75;;;;;;;-3.20;100.00;101588.16;4991515;28;20132;-75
2023/01/21 03:44:07;;;;;;;68.82;44.80;;;;;;;-3.72;100.00;101504.69;5008326;28;20044;-75
2023/01/21 03:46:37;;;;;;;70.57;44.58;;;;;;;-3.19;100.00;101593.34;5008793;28;20045;-75
2023/01/21 03:49:12;;;;;;;72.90;45.55;;;;;;;-3.17;100.00;101595.94;4990994;28;20029;-75
2023/01/21 03:51:45;;;;;;;76.38;46.40;;;;;;;-3.50;100.00;101536.03;4991034;28;20425;-75
2023/01/21 03:54:11;;;;;;;74.40;45.97;;;;;;;-3.19;100.00;101588.22;4992014;28;20029;-75
2023/01/21 03:56:37;;;;;;;74.10;44.70;;;;;;;-3.46;100.00;101564.41;5008927;28;20035;-75
2023/01/21 03:59:02;;;;;;;74.30;45.30;;;;;;;-3.24;100.00;101592.34;5007503;28;20029;-74
2023/01/21 04:01:27;;;;;;;73.43;45.95;;;;;;;-3.21;100.00;101607.84;5007592;28;20025;-75
2023/01/21 04:03:53;;;;;;;73.15;47.25;;;;;;;-3.38;100.00;101593.72;5009709;28;20139;-75
2023/01/21 04:06:21;;;;;;;73.22;46.63;;;;;;;-3.25;100.00;101608.63;5007909;28;20131;-74
2023/01/21 04:08:46;;;;;;;78.82;46.65;;;;;;;-3.28;100.00;101605.94;4990007;28;20025;-74
2023/01/21 04:11:12;;;;;;;84.32;48.25;;;;;;;-3.30;100.00;101601.63;5007291;28;20136;-74
2023/01/21 04:13:37;;;;;;;81.60;46.30;;;;;;;-3.25;100.00;101610.31;5007907;28;20043;-73
2023/01/21 04:16:04;;;;;;;68.25;43.42;;;;;;;-3.28;100.00;101615.38;4997975;28;20132;-74
2023/01/21 04:18:29;;;;;;;74.10;44.28;;;;;;;-3.25;100.00;101623.16;5005340;28;20035;-74
2023/01/21 04:20:54;;;;;;;75.65;45.97;;;;;;;-3.42;100.00;101591.03;5007869;28;20025;-74
2023/01/21 04:23:20;;;;;;;66.03;44.83;;;;;;;-3.30;100.00;101607.63;4985034;28;20026;-74
2023/01/21 04:25:49;;;;;;;78.82;45.60;;;;;;;-3.35;100.00;101598.97;5002306;28;20088;-74
2023/01/21 04:28:14;;;;;;;70.35;43.33;;;;;;;-3.31;100.00;101605.03;4979729;28;20090;-73
2023/01/21 04:30:40;;;;;;;69.63;43.83;;;;;;;-3.32;100.00;101613.56;4997352;28;20080;-74
2023/01/21 04:33:05;;;;;;;69.35;46.58;;;;;;;-3.37;100.00;101602.28;4997600;28;20858;-73
2023/01/21 04:35:31;;;;;;;75.35;47.08;;;;;;;-3.23;100.00;101624.94;4989709;28;20892;-74
2023/01/21 04:37:56;;;;;;;79.15;45.63;;;;;;;-3.31;100.00;101615.31;4990232;28;20830;-74
2023/01/21 04:40:22;;;;;;;79.22;49.20;;;;;;;-3.33;100.00;101616.97;5007217;28;20835;-74
2023/01/21 04:42:47;;;;;;;63.03;44.45;;;;;;;-3.35;100.00;101628.91;4999774;28;20831;-74
2023/01/21 04:45:12;;;;;;;76.22;47.28;;;;;;;-3.37;100.00;101639.13;5008470;28;20059;-74
2023/01/21 04:47:42;;;;;;;75.25;46.58;;;;;;;-3.48;100.00;101624.28;5007733;28;20017;-74
2023/01/21 04:50:09;;;;;;;71.63;46.08;;;;;;;-3.57;100.00;101609.50;5006221;28;20132;-74
2023/01/21 04:52:35;;;;;;;74.53;44.95;;;;;;;-3.49;100.00;101620.84;5007603;28;20025;-73
2023/01/21 04:55:00;;;;;;;86.25;46.88;;;;;;;-3.43;100.00;101649.25;5006802;28;20033;-73
2023/01/21 04:57:26;;;;;;;68.88;45.85;;;;;;;-3.42;100.00;101638.16;5006819;28;20981;-73
2023/01/21 04:59:51;;;;;;;67.47;45.22;;;;;;;-3.44;100.00;101639.78;5006988;28;20025;-74
2023/01/21 05:02:16;;;;;;;80.72;46.97;;;;;;;-3.53;100.00;101639.56;4999366;28;20021;-73
2023/01/21 05:04:42;;;;;;;71.32;47.58;;;;;;;-3.46;100.00;101656.00;4999219;28;20583;-74
2023/01/21 05:07:07;;;;;;;71.43;46.08;;;;;;;-3.48;100.00;101662.81;4997172;28;20267;-73
2023/01/21 05:09:33;;;;;;;85.93;47.30;;;;;;;-3.62;100.00;101642.75;4997988;28;20079;-74
2023/01/21 05:11:58;;;;;;;79.47;45.38;;;;;;;-3.55;100.00;101650.63;5007306;28;20179;-74
2023/01/21 05:14:23;;;;;;;72.88;44.85;;;;;;;-3.51;100.00;101663.56;5007351;28;20799;-74
2023/01/21 05:16:49;;;;;;;79.63;45.65;;;;;;;-3.53;100.00;101665.25;5006739;28;20896;-74
2023/01/21 05:19:14;;;;;;;76.53;45.90;;;;;;;-3.52;100.00;101672.13;4989380;28;20029;-74
2023/01/21 05:21:40;;;;;;;75.63;46.55;;;;;;;-3.53;100.00;101670.38;5009640;28;20030;-73
2023/01/21 05:24:05;;;;;;;77.93;47.35;;;;;;;-3.65;100.00;101634.13;5003903;28;20294;-73
2023/01/21 05:26:31;;;;;;;72.55;46.88;;;;;;;-3.47;100.00;101665.41;5006474;28;20055;-73
2023/01/21 05:28:56;;;;;;;78.43;46.28;;;;;;;-3.53;100.00;101662.69;5019441;28;20209;-73
2023/01/21 05:31:21;;;;;;;80.53;48.42;;;;;;;-3.50;100.00;101670.47;4986756;28;20060;-73
2023/01/21 05:33:47;;;;;;;71.45;47.58;;;;;;;-3.80;100.00;101652.53;5003214;28;20994;-73
2023/01/21 05:36:12;;;;;;;78.50;47.92;;;;;;;-3.53;100.00;101690.94;4999710;28;20033;-73
2023/01/21 05:38:38;;;;;;;69.45;46.30;;;;;;;-3.59;100.00;101680.50;5004643;28;20024;-73
2023/01/21 05:41:04;;;;;;;74.85;44.95;;;;;;;-3.63;100.00;101679.53;4993122;28;20025;-73
2023/01/21 05:43:30;;;;;;;70.93;44.63;;;;;;;-3.79;100.00;101661.97;4994233;28;20808;-74
2023/01/21 05:45:55;;;;;;;79.32;47.90;;;;;;;-3.66;100.00;101691.41;5002332;28;20029;-73
2023/01/21 05:48:21;;;;;;;76.78;44.42;;;;;;;-3.60;100.00;101704.41;5005030;28;20052;-74
2023/01/21 05:50:47;;;;;;;89.57;49.88;;;;;;;-3.64;100.00;101703.47;5006233;28;20032;-74
2023/01/21 05:53:13;;;;;;;75.85;47.17;;;;;;;-3.84;100.00;101688.31;4997494;28;20560;-74
2023/01/21 05:55:38;;;;;;;79.85;47.13;;;;;;;-3.78;100.00;101715.03;5003631;28;20022;-73
2023/01/21 05:58:04;;;;;;;69.65;45.30;;;;;;;-3.83;100.00;101700.34;5001008;28;20087;-73
2023/01/21 06:00:30;;;;;;;78.25;47.10;;;;;;;-3.75;100.00;101725.38;4989269;28;20044;-73
2023/01/21 06:02:55;;;;;;;78.28;45.72;;;;;;;-3.87;100.00;101722.47;4989179;28;20029;-73
2023/01/21 06:05:21;;;;;;;74.63;45.28;;;;;;;-3.82;100.00;101727.75;5007596;28;20025;-73
2023/01/21 06:07:46;;;;;;;80.70;48.30;;;;;;;-3.84;100.00;101747.34;5009014;28;20852;-73
2023/01/21 06:10:12;;;;;;;78.22;47.30;;;;;;;-4.08;100.00;101703.88;5011937;28;20832;-73
2023/01/21 06:12:37;;;;;;;75.68;45.13;;;;;;;-3.81;100.00;101753.47;5017667;28;20056;-74
2023/01/21 06:15:03;;;;;;;80.47;47.80;;;;;;;-3.84;100.00;101760.19;5017426;28;20048;-74
2023/01/21 06:17:28;;;;;;;74.93;45.92;;;;;;;-3.90;100.00;101754.88;5017493;28;20075;-74
2023/01/21 06:19:54;;;;;;;83.38;46.15;;;;;;;-3.90;100.00;101770.28;5016270;28;20814;-73
2023/01/21 06:22:19;;;;;;;89.30;49.22;;;;;;;-3.96;100.00;101765.84;5002362;28;20040;-74
2023/01/21 06:24:45;;;;;;;91.35;50.25;;;;;;;-4.02;100.00;101760.50;5019388;28;20129;-74
2023/01/21 06:27:11;;;;;;;90.40;48.55;;;;;;;-4.00;100.00;101768.25;5019862;28;20102;-74
2023/01/21 06:29:36;;;;;;;77.28;45.90;;;;;;;-4.93;100.00;101644.81;4999550;28;20029;-74
2023/01/21 06:32:01;;;;;;;78.20;45.92;;;;;;;-4.11;100.00;101770.50;5019023;28;20029;-74
2023/01/21 06:34:27;;;;;;;83.32;49.63;;;;;;;-4.03;100.00;101788.72;5021130;28;20135;-74
2023/01/21 06:36:52;;;;;;;89.22;50.05;;;;;;;-4.03;100.00;101786.13;5023415;28;20123;-74
2023/01/21 06:39:18;;;;;;;84.30;49.13;;;;;;;-4.09;100.00;101785.97;5023883;28;20033;-73
2023/01/21 06:41:43;;;;;;;85.57;50.22;;;;;;;-4.30;100.00;101768.19;5014211;28;20029;-74
2023/01/21 06:44:09;;;;;;;81.60;48.20;;;;;;;-4.48;100.00;101742.81;5021388;28;20040;-73
2023/01/21 06:46:34;;;;;;;86.32;50.00;;;;;;;-4.24;100.00;101789.78;5023457;28;20060;-74
2023/01/21 06:49:00;;;;;;;85.57;52.35;;;;;;;-4.20;100.00;101801.00;5023758;28;20017;-74
2023/01/21 06:51:25;;;;;;;74.93;47.33;;;;;;;-4.28;100.00;101793.06;5023360;28;20079;-74
2023/01/21 06:53:51;;;;;;;85.60;49.95;;;;;;;-4.21;100.00;101807.81;5023014;28;20084;-74
2023/01/21 06:56:16;;;;;;;92.65;51.67;;;;;;;-4.24;100.00;101820.56;5014047;28;20824;-73
2023/01/21 06:58:41;;;;;;;85.38;49.28;;;;;;;-4.39;100.00;101803.78;5023857;28;20136;-74
2023/01/21 07:01:07;;;;;;;93.35;50.67;;;;;;;-4.28;100.00;101823.84;5008178;28;20028;-74
2023/01/21 07:03:32;;;;;;;99.22;53.05;;;;;;;-4.40;100.00;101822.56;5011610;28;20888;-74
2023/01/21 07:05:57;;;;;;;92.32;52.28;;;;;;;-4.50;100.00;101800.88;5017554;28;20037;-74
2023/01/21 07:08:23;;;;;;;90.65;49.35;;;;;;;-4.37;100.00;101827.81;5027146;28;20032;-82
2023/01/21 07:10:48;;;;;;;90.03;52.63;;;;;;;-4.29;100.00;101850.31;5029322;28;20489;-74
2023/01/21 07:13:14;;;;;;;91.18;51.95;;;;;;;-4.29;100.00;101839.19;5028773;28;20073;-74
2023/01/21 07:15:39;;;;;;;82.20;49.08;;;;;;;-4.28;100.00;101854.63;5029086;28;20940;-74
2023/01/21 07:18:04;;;;;;;93.60;55.13;;;;;;;-4.33;100.00;101839.91;5011802;28;20029;-73
2023/01/21 07:20:30;;;;;;;89.55;51.72;;;;;;;-4.26;100.00;101855.53;5024006;28;20064;-74
2023/01/21 07:22:55;;;;;;;101.03;52.42;;;;;;;-4.28;100.00;101848.63;5040139;28;20087;-75
2023/01/21 07:25:21;;;;;;;99.15;54.85;;;;;;;-4.27;100.00;101842.66;5025969;28;20034;-73
2023/01/21 07:27:46;;;;;;;91.60;52.58;;;;;;;-4.21;100.00;101851.44;5045847;28;20025;-74
2023/01/21 07:30:19;;;;;;;93.30;52.47;;;;;;;-4.26;100.00;101852.97;5038139;28;20088;-74
2023/01/21 07:32:45;;;;;;;85.00;51.88;;;;;;;-4.24;100.00;101851.34;5016981;28;20039;-73
2023/01/21 07:35:11;;;;;;;85.90;51.05;;;;;;;-4.19;100.00;101872.03;5034260;28;20028;-74
2023/01/21 07:37:37;;;;;;;96.05;55.67;;;;;;;-4.19;100.00;101874.59;5038139;28;20021;-74
2023/01/21 07:40:02;;;;;;;91.30;51.33;;;;;;;-4.23;100.00;101865.94;5036407;28;20041;-74
2023/01/21 07:42:28;;;;;;;90.15;52.10;;;;;;;-4.17;100.00;101878.94;5036802;28;20033;-74
2023/01/21 07:44:53;;;;;;;85.05;50.05;;;;;;;-4.20;100.00;101873.72;5018829;28;20021;-74
2023/01/21 07:47:18;;;;;;;90.57;49.72;;;;;;;-4.53;100.00;101811.06;5033179;28;20072;-75
2023/01/21 07:49:44;;;;;;;89.15;50.90;;;;;;;-4.22;100.00;101870.22;5025514;28;20879;-74
2023/01/21 07:52:09;;;;;;;85.88;48.70;;;;;;;-4.23;100.00;101868.50;5036887;28;20029;-75
2023/01/21 07:54:35;;;;;;;86.28;50.03;;;;;;;-4.27;100.00;101871.75;5033955;28;20691;-74
2023/01/21 07:57:00;;;;;;;86.65;50.28;;;;;;;-5.02;100.00;101771.75;5034262;28;20052;-73
2023/01/21 07:59:26;;;;;;;91.25;49.75;;;;;;;-4.25;100.00;101885.50;5036726;28;20032;-74
2023/01/21 08:01:51;;;;;;;84.72;49.95;;;;;;;-4.29;100.00;101891.34;5036004;28;20048;-75
2023/01/21 08:04:16;;;;;;;90.85;51.50;;;;;;;-4.24;100.00;101889.81;5040795;28;20042;-74
2023/01/21 08:06:42;;;;;;;81.57;49.88;;;;;;;-4.22;100.00;101901.00;5037825;28;20017;-73
2023/01/21 08:09:08;;;;;;;86.25;50.70;;;;;;;-4.28;100.00;101893.09;5037410;28;20025;-74
2023/01/21 08:11:34;;;;;;;86.82;51.42;;;;;;;-4.24;100.00;101896.63;5036806;28;20837;-74
2023/01/21 08:13:59;;;;;;;90.25;52.13;;;;;;;-4.12;100.00;101908.19;5037081;28;20029;-74
2023/01/21 08:16:25;;;;;;;87.75;52.15;;;;;;;-4.15;100.00;101902.94;5018599;28;20029;-74
2023/01/21 08:18:50;;;;;;;79.15;49.10;;;;;;;-4.05;100.00;101916.06;5036196;28;20032;-74
2023/01/21 08:21:17;;;;;;;86.10;49.88;;;;;;;-4.01;100.00;101925.63;5036309;28;20020;-73
2023/01/21 08:23:42;;;;;;;96.20;53.22;;;;;;;-4.02;100.00;101914.47;5037443;28;20048;-74
2023/01/21 08:26:07;;;;;;;95.53;54.17;;;;;;;-3.97;100.00;101930.03;5037408;28;20025;-74
2023/01/21 08:28:33;;;;;;;99.72;57.45;;;;;;;-3.96;100.00;101929.22;5018004;28;20030;-74
2023/01/21 08:31:10;;;;;;;94.40;55.55;;;;;;;-4.27;100.00;101881.16;5038189;28;20032;-74
2023/01/21 08:33:36;;;;;;;96.30;56.17;;;;;;;-4.60;100.00;101819.34;5019070;28;20029;-74
2023/01/21 08:36:02;;;;;;;103.95;57.13;;;;;;;-3.90;100.00;101939.69;5034613;28;20079;-74
2023/01/21 08:38:28;;;;;;;96.00;55.10;;;;;;;-4.17;100.00;101903.72;5018635;28;20096;-74
2023/01/21 08:40:56;;;;;;;96.10;52.78;;;;;;;-3.86;100.00;101944.13;5024304;28;20090;-74
2023/01/21 08:43:21;;;;;;;82.28;52.92;;;;;;;-3.92;100.00;101936.22;5009199;28;20700;-74
2023/01/21 08:45:46;;;;;;;87.68;51.03;;;;;;;-3.88;100.00;101941.47;5026728;28;20032;-75
2023/01/21 08:48:14;;;;;;;92.10;53.33;;;;;;;-3.74;100.00;101963.34;5024676;28;20017;-74
2023/01/21 08:50:39;;;;;;;87.13;52.33;;;;;;;-3.80;100.00;101949.44;5025172;28;20032;-74
2023/01/21 08:53:05;;;;;;;90.82;52.60;;;;;;;-3.73;100.00;101953.97;5024820;28;20025;-74
2023/01/21 08:55:31;;;;;;;94.35;52.95;;;;;;;-3.63;100.00;101961.13;5004093;28;20061;-74
2023/01/21 08:57:57;;;;;;;96.00;52.83;;;;;;;-3.58;100.00;101972.41;5022550;28;20027;-74
2023/01/21 09:00:23;;;;;;;97.38;54.17;;;;;;;-3.51;100.00;101976.03;5022742;28;20107;-74
2023/01/21 09:02:49;;;;;;;89.25;53.38;;;;;;;-3.56;100.00;101962.19;5020604;28;20059;-74
2023/01/21 09:05:15;;;;;;;89.82;52.33;;;;;;;-3.48;100.00;101974.44;5007999;28;21314;-74
2023/01/21 09:07:40;;;;;;;99.32;53.10;;;;;;;-3.42;100.00;101971.22;5018844;28;20033;-74
2023/01/21 09:10:06;;;;;;;86.60;53.00;;;;;;;-3.35;100.00;101979.19;5020460;28;20909;-75
2023/01/21 09:12:32;;;;;;;91.80;53.90;;;;;;;-3.40;100.00;101975.56;5018391;28;20025;-75
2023/01/21 09:14:57;;;;;;;94.07;54.10;;;;;;;-3.29;100.00;101988.75;5019074;28;20124;-75
2023/01/21 09:17:23;;;;;;;96.38;54.28;;;;;;;-3.21;100.00;101998.44;5016599;28;20029;-74
2023/01/21 09:19:48;;;;;;;97.70;56.53;;;;;;;-3.21;100.00;101977.88;5010124;28;20037;-74
2023/01/21 09:22:15;;;;;;;92.07;56.15;;;;;;;-3.08;100.00;102004.88;5013523;28;20135;-75
2023/01/21 09:24:40;;;;;;;94.50;52.13;;;;;;;-3.09;100.00;101992.81;5013626;28;20035;-73
2023/01/21 09:27:06;;;;;;;86.35;52.90;;;;;;;-2.97;100.00;102003.47;5013205;28;20020;-75
2023/01/21 09:29:32;;;;;;;89.07;53.47;;;;;;;-3.91;100.00;101845.53;5012406;28;20819;-75
2023/01/21 09:31:58;;;;;;;105.35;56.90;;;;;;;-2.83;100.00;102001.31;5013682;28;20098;-75
2023/01/21 09:34:23;;;;;;;111.78;59.08;;;;;;;-2.76;100.00;102004.13;5010525;28;20040;-75
2023/01/21 09:36:49;;;;;;;104.72;59.35;;;;;;;-2.69;100.00;102010.31;5009715;28;20032;-76
2023/01/21 09:39:14;;;;;;;96.78;57.90;;;;;;;-2.64;100.00;102003.63;5017403;28;20021;-75
2023/01/21 09:41:45;;;;;;;98.38;59.30;;;;;;;-2.50;100.00;102022.88;5009450;28;20056;-75
2023/01/21 09:44:16;;;;;;;102.35;61.45;;;;;;;-2.51;100.00;102013.44;4993203;28;20075;-74
2023/01/21 09:47:00;;;;;;;94.95;58.13;;;;;;;-2.39;100.00;102029.19;5012355;28;20028;-75
2023/01/21 09:49:25;;;;;;;107.10;58.60;;;;;;;-2.29;100.00;102026.06;5006359;28;20028;-75
2023/01/21 09:51:52;;;;;;;97.22;57.83;;;;;;;-2.24;100.00;102039.94;5010462;28;20032;-73
2023/01/21 09:54:23;;;;;;;96.07;58.75;;;;;;;-2.32;100.00;102023.41;4987774;28;20036;-74
2023/01/21 09:57:13;;;;;;;104.22;61.15;;;;;;;-2.13;100.00;102042.81;4997721;28;20043;-74
2023/01/21 09:59:55;;;;;;;107.40;59.35;;;;;;;-2.11;100.00;102047.19;5006700;28;20028;-74
2023/01/21 10:02:55;;;;;;;100.75;58.75;;;;;;;-2.03;100.00;102056.81;5001311;28;20028;-73
2023/01/21 10:05:24;;;;;;;107.90;60.55;;;;;;;-1.97;100.00;102057.84;5009139;28;20391;-75
2023/01/21 10:08:05;;;;;;;107.85;59.67;;;;;;;-2.00;100.00;102042.31;5008984;28;20057;-75
2023/01/21 10:10:49;;;;;;;124.80;63.90;;;;;;;-1.99;100.00;102061.22;5007339;28;20037;-74
2023/01/21 10:13:17;;;;;;;120.07;66.30;;;;;;;-2.93;100.00;101891.31;4989042;28;20033;-74
2023/01/21 10:15:49;;;;;;;128.73;66.80;;;;;;;-1.86;100.00;102066.72;5008713;28;20882;-74
2023/01/21 10:18:27;;;;;;;126.60;66.53;;;;;;;-1.87;100.00;102065.00;5012379;28;20040;-74
2023/01/21 10:21:02;;;;;;;130.02;67.72;;;;;;;-1.90;100.00;102062.34;4988592;28;20067;-77
2023/01/21 10:23:41;;;;;;;134.95;68.75;;;;;;;-1.88;100.00;102058.09;4988629;28;20148;-73
2023/01/21 10:26:11;;;;;;;131.32;68.45;;;;;;;-1.81;100.00;102065.16;4988238;28;20025;-73
2023/01/21 10:28:42;;;;;;;137.63;69.78;;;;;;;-2.02;100.00;102048.25;5003535;28;20033;-73
2023/01/21 10:31:17;;;;;;;122.13;68.93;;;;;;;-1.94;100.00;102064.78;5004630;28;20036;-74
2023/01/21 10:33:43;;;;;;;139.30;73.30;;;;;;;-1.83;100.00;102065.97;4987570;28;20033;-73
2023/01/21 10:36:21;;;;;;;134.10;71.40;;;;;;;-1.77;100.00;102086.72;5005193;28;20075;-73
2023/01/21 10:38:49;;;;;;;128.25;70.47;;;;;;;-1.65;100.00;102089.59;5004005;28;20091;-73
2023/01/21 10:41:39;;;;;;;126.18;69.57;;;;;;;-1.65;100.00;102087.03;5003524;28;20040;-74
2023/01/21 10:44:23;;;;;;;136.07;70.07;;;;;;;-1.61;100.00;102088.88;4980648;28;20087;-74
2023/01/21 10:47:13;;;;;;;124.57;70.65;;;;;;;-1.67;100.00;102075.81;5003829;28;20036;-76
2023/01/21 10:49:47;;;;;;;124.10;71.35;;;;;;;-1.67;100.00;102068.09;4987868;28;20052;-74
2023/01/21 10:52:33;;;;;;;;;;;;;;;-1.55;100.00;102086.44;5002121;28;20025;-74
2023/01/21 10:55:12;;;;;;;127.32;65.05;;;;;;;-1.59;100.00;102069.19;5004545;28;19912;-74
2023/01/21 10:57:46;;;;;;;129.18;66.93;;;;;;;-1.44;100.00;102095.34;5006386;28;20374;-74
2023/01/21 11:00:28;;;;;;;129.85;67.00;;;;;;;-1.69;100.00;102039.69;5005586;28;20025;-75
2023/01/21 11:02:56;;;;;;;120.90;62.05;;;;;;;-1.33;100.00;102085.31;4970403;28;20780;-75
2023/01/21 11:05:23;;;;;;;124.03;66.38;;;;;;;-1.29;100.00;102092.28;4994725;28;20086;-74
2023/01/21 11:07:52;;;;;;;111.63;64.70;;;;;;;-1.17;100.00;102080.56;4984119;28;20827;-75
2023/01/21 11:10:25;;;;;;;117.63;66.03;;;;;;;-1.06;100.00;102063.66;5010368;28;20939;-76
2023/01/21 11:12:53;;;;;;;112.03;62.55;;;;;;;-0.92;100.00;102073.41;4984772;28;20029;-75
2023/01/21 11:15:19;;;;;;;111.85;61.47;;;;;;;-0.84;100.00;102077.03;5008987;28;20048;-75